Albee, South Dakota
Current Conditions -  °F | °C
As of 9:14 PM on Tuesday 25 Nov 2014 (Local Time) from KDXX Reporting Station
Clear Clear  
Wind Chill: 21°   Ceiling: Unl
Heat Index: 30°   Visibility: 10mi
Dew Point: 25°   Wind: 12mph
Humidity: 80%   Direction: 110°ESE
Pressure: 29.89"   Gusts: NA
Location:  45.0205°N, 96.5453°W
Report Text: KDXX 260314Z AUTO 11010KT 10SM CLR M01/M04 A2989 RMK AO2
Loading
Personal Weather Stations






























Interactive Weather Map New forecast layout! Learn more

10-Day Weather Forecast

Advertisements
Track Severe Weather on mobile